createdAt,value
2023-02-19T00:01:08.924Z,12.10
2023-02-19T00:03:36.978Z,14.67
2023-02-19T00:06:05.690Z,14.53
2023-02-19T00:08:33.703Z,13.10
2023-02-19T00:11:05.700Z,13.60
2023-02-19T00:13:36.608Z,11.70
2023-02-19T00:16:14.426Z,15.70
2023-02-19T00:18:42.013Z,12.07
2023-02-19T00:21:09.459Z,13.90
2023-02-19T00:23:36.484Z,14.50
2023-02-19T00:26:17.213Z,13.47
2023-02-19T00:28:44.740Z,13.37
2023-02-19T00:31:18.636Z,13.00
2023-02-19T00:33:46.340Z,18.20
2023-02-19T00:36:13.839Z,14.37
2023-02-19T00:38:42.057Z,13.10
2023-02-19T00:41:19.220Z,13.40
2023-02-19T00:43:46.814Z,13.20
2023-02-19T00:46:13.496Z,13.53
2023-02-19T00:48:39.933Z,13.53
2023-02-19T00:51:06.634Z,14.70
2023-02-19T00:53:33.127Z,13.60
2023-02-19T00:55:59.589Z,11.43
2023-02-19T00:58:26.012Z,13.83
2023-02-19T01:00:52.471Z,13.87
2023-02-19T01:03:18.928Z,13.00
2023-02-19T01:05:45.382Z,12.90
2023-02-19T01:08:11.851Z,15.33
2023-02-19T01:10:38.270Z,14.13
2023-02-19T01:13:04.697Z,15.87
2023-02-19T01:15:33.081Z,15.60
2023-02-19T01:17:59.732Z,17.40
2023-02-19T01:20:27.355Z,16.47
2023-02-19T01:22:53.845Z,15.00
2023-02-19T01:25:20.367Z,15.97
2023-02-19T01:27:46.853Z,20.80
2023-02-19T01:30:13.453Z,16.60
2023-02-19T01:32:40.061Z,14.93
2023-02-19T01:35:06.807Z,16.03
2023-02-19T01:37:33.272Z,17.10
2023-02-19T01:39:59.809Z,16.03
2023-02-19T01:42:26.241Z,16.00
2023-02-19T01:45:18.986Z,16.27
2023-02-19T01:47:47.808Z,15.07
2023-02-19T01:50:14.489Z,13.77
2023-02-19T01:52:41.472Z,16.60
2023-02-19T01:55:12.693Z,15.90
2023-02-19T01:57:43.522Z,20.60
2023-02-19T02:00:12.765Z,19.17
2023-02-19T02:02:41.361Z,19.60
2023-02-19T02:05:15.555Z,23.27
2023-02-19T02:08:00.895Z,20.27
2023-02-19T02:10:27.472Z,20.13
2023-02-19T02:12:58.522Z,20.50
2023-02-19T02:15:35.169Z,21.93
2023-02-19T02:18:28.230Z,21.17
2023-02-19T02:21:16.026Z,21.90
2023-02-19T02:24:12.945Z,22.83
2023-02-19T02:26:55.886Z,22.00
2023-02-19T02:29:41.137Z,22.20
2023-02-19T02:32:15.788Z,23.40
2023-02-19T02:34:58.687Z,24.70
2023-02-19T02:37:28.270Z,25.90
2023-02-19T02:39:58.152Z,22.40
2023-02-19T02:42:27.453Z,23.90
2023-02-19T02:45:16.739Z,30.10
2023-02-19T02:47:57.939Z,22.70
2023-02-19T02:50:29.403Z,27.53
2023-02-19T02:53:19.525Z,22.80
2023-02-19T02:55:49.665Z,25.70
2023-02-19T02:58:17.517Z,23.40
2023-02-19T03:01:07.223Z,25.37
2023-02-19T03:03:37.078Z,24.70
2023-02-19T03:06:07.107Z,29.17
2023-02-19T03:09:05.079Z,26.70
2023-02-19T03:11:52.751Z,22.53
2023-02-19T03:14:44.664Z,28.50
2023-02-19T03:17:39.100Z,24.73
2023-02-19T03:20:11.319Z,25.57
2023-02-19T03:22:39.774Z,24.63
2023-02-19T03:25:40.523Z,24.97
2023-02-19T03:28:11.034Z,33.27
2023-02-19T03:30:44.314Z,25.20
2023-02-19T03:33:18.674Z,30.40
2023-02-19T03:35:51.932Z,27.00
2023-02-19T03:38:57.972Z,26.80
2023-02-19T03:41:33.675Z,29.40
2023-02-19T03:44:07.751Z,28.53
2023-02-19T03:46:42.050Z,32.07
2023-02-19T03:49:14.753Z,33.90
2023-02-19T03:51:50.410Z,32.00
2023-02-19T03:54:34.668Z,29.37
2023-02-19T03:57:06.010Z,30.03
2023-02-19T03:59:43.954Z,30.87
2023-02-19T04:02:19.263Z,32.23
2023-02-19T04:04:53.150Z,33.23
2023-02-19T04:07:20.655Z,29.30
2023-02-19T04:09:51.126Z,27.37
2023-02-19T04:12:19.309Z,29.67
2023-02-19T04:15:00.793Z,30.13
2023-02-19T04:17:33.792Z,32.13
2023-02-19T04:20:03.597Z,32.13
2023-02-19T04:22:31.233Z,36.60
2023-02-19T04:24:57.803Z,32.50
2023-02-19T04:27:24.204Z,31.50
2023-02-19T04:29:50.680Z,29.20
2023-02-19T04:32:17.183Z,29.77
2023-02-19T04:34:43.640Z,33.43
2023-02-19T04:37:10.087Z,34.57
2023-02-19T04:39:36.520Z,33.10
2023-02-19T04:42:03.054Z,31.07
2023-02-19T04:44:29.611Z,34.17
2023-02-19T04:46:56.171Z,35.40
2023-02-19T04:49:22.659Z,31.20
2023-02-19T04:51:49.093Z,32.13
2023-02-19T04:54:15.539Z,29.83
2023-02-19T04:56:42.026Z,32.03
2023-02-19T04:59:08.522Z,32.00
2023-02-19T05:01:35.031Z,27.53
2023-02-19T05:04:01.615Z,30.90
2023-02-19T05:06:28.133Z,31.67
2023-02-19T05:08:54.497Z,33.00
2023-02-19T05:11:21.077Z,31.13
2023-02-19T05:13:47.563Z,34.40
2023-02-19T05:16:16.045Z,29.93
2023-02-19T05:18:44.864Z,32.60
2023-02-19T05:21:12.844Z,27.00
2023-02-19T05:23:39.629Z,32.03
2023-02-19T05:26:17.889Z,25.50
2023-02-19T05:28:49.863Z,33.50
2023-02-19T05:31:16.835Z,32.93
2023-02-19T05:33:45.622Z,30.33
2023-02-19T05:36:13.763Z,28.73
2023-02-19T05:38:41.470Z,28.47
2023-02-19T05:41:12.572Z,28.43
2023-02-19T05:43:40.848Z,25.70
2023-02-19T05:46:08.241Z,29.30
2023-02-19T05:48:34.872Z,31.07
2023-02-19T05:51:03.896Z,28.40
2023-02-19T05:53:31.006Z,24.77
2023-02-19T05:55:57.553Z,24.77
2023-02-19T05:58:24.065Z,29.67
2023-02-19T06:00:50.554Z,28.27
2023-02-19T06:03:16.964Z,25.33
2023-02-19T06:05:43.408Z,27.20
2023-02-19T06:08:13.266Z,27.27
2023-02-19T06:10:42.676Z,25.23
2023-02-19T06:13:10.060Z,25.77
2023-02-19T06:15:37.196Z,29.27
2023-02-19T06:18:04.081Z,26.97
2023-02-19T06:20:30.661Z,26.03
2023-02-19T06:22:57.687Z,25.47
2023-02-19T06:25:24.136Z,28.87
2023-02-19T06:27:50.592Z,26.87
2023-02-19T06:30:17.115Z,24.80
2023-02-19T06:32:43.584Z,31.10
2023-02-19T06:35:09.981Z,30.77
2023-02-19T06:37:36.434Z,24.83
2023-02-19T06:40:03.068Z,31.60
2023-02-19T06:42:32.796Z,25.87
2023-02-19T06:44:59.224Z,29.43
2023-02-19T06:47:25.634Z,30.63
2023-02-19T06:49:52.078Z,21.30
2023-02-19T06:52:18.535Z,27.13
2023-02-19T06:54:44.950Z,26.60
2023-02-19T06:57:11.361Z,28.23
2023-02-19T06:59:37.775Z,24.20
2023-02-19T07:02:04.219Z,26.67
2023-02-19T07:04:30.739Z,23.93
2023-02-19T07:06:57.341Z,26.13
2023-02-19T07:09:25.399Z,30.53
2023-02-19T07:11:52.343Z,21.73
2023-02-19T07:14:19.050Z,32.83
2023-02-19T07:16:47.385Z,30.70
2023-02-19T07:19:15.087Z,29.57
2023-02-19T07:21:42.337Z,30.70
2023-02-19T07:24:10.192Z,27.87
2023-02-19T07:26:36.702Z,27.13
2023-02-19T07:29:03.983Z,30.47
2023-02-19T07:31:30.691Z,23.77
2023-02-19T07:33:57.219Z,23.47
2023-02-19T07:36:25.354Z,28.37
2023-02-19T07:38:56.398Z,22.67
2023-02-19T07:41:24.247Z,21.50
2023-02-19T07:43:51.747Z,19.97
2023-02-19T07:46:18.324Z,22.10
2023-02-19T07:48:45.178Z,23.67
2023-02-19T07:51:14.135Z,26.90
2023-02-19T07:53:40.672Z,22.70
2023-02-19T07:56:08.480Z,21.93
2023-02-19T07:58:35.845Z,28.07
2023-02-19T08:01:08.830Z,20.73
2023-02-19T08:03:36.487Z,31.47
2023-02-19T08:06:03.614Z,24.63
2023-02-19T08:08:30.155Z,21.90
2023-02-19T08:11:18.965Z,24.33
2023-02-19T08:13:49.116Z,31.73
2023-02-19T08:16:26.626Z,22.87
2023-02-19T08:18:56.428Z,24.63
2023-02-19T08:21:22.981Z,31.00
2023-02-19T08:23:51.128Z,20.43
2023-02-19T08:26:18.036Z,20.17
2023-02-19T08:28:44.514Z,27.53
2023-02-19T08:31:12.226Z,19.33
2023-02-19T08:33:40.100Z,22.67
2023-02-19T08:36:09.383Z,17.83
2023-02-19T08:38:36.826Z,26.40
2023-02-19T08:41:08.312Z,23.93
2023-02-19T08:43:35.539Z,22.37
2023-02-19T08:46:02.435Z,23.90
2023-02-19T08:48:28.961Z,20.43
2023-02-19T08:50:57.432Z,25.97
2023-02-19T08:53:24.648Z,25.37
2023-02-19T08:55:51.687Z,21.73
2023-02-19T08:58:18.482Z,25.90
2023-02-19T09:00:45.160Z,22.90
2023-02-19T09:03:11.660Z,27.33
2023-02-19T09:05:39.052Z,25.73
2023-02-19T09:08:05.585Z,34.40
2023-02-19T09:10:33.396Z,30.70
2023-02-19T09:12:59.884Z,24.03
2023-02-19T09:15:28.490Z,23.00
2023-02-19T09:17:55.104Z,19.93
2023-02-19T09:20:21.590Z,24.50
2023-02-19T09:22:48.008Z,27.07
2023-02-19T09:25:14.697Z,26.63
2023-02-19T09:27:41.202Z,21.00
2023-02-19T09:30:28.294Z,23.47
2023-02-19T09:32:54.771Z,21.60
2023-02-19T09:35:21.241Z,30.63
2023-02-19T09:37:47.705Z,25.77
2023-02-19T09:40:14.848Z,25.93
2023-02-19T09:42:43.194Z,28.70
2023-02-19T09:45:19.948Z,19.47
2023-02-19T09:47:46.456Z,23.70
2023-02-19T09:50:16.955Z,26.03
2023-02-19T09:52:51.949Z,25.97
2023-02-19T09:55:30.886Z,21.07
2023-02-19T09:58:00.245Z,22.90
2023-02-19T10:00:31.485Z,26.47
2023-02-19T10:03:05.464Z,18.40
2023-02-19T10:05:33.800Z,20.77
2023-02-19T10:08:02.192Z,18.70
2023-02-19T10:10:37.168Z,20.43
2023-02-19T10:13:22.127Z,14.33
2023-02-19T10:15:54.308Z,21.47
2023-02-19T10:18:24.638Z,20.40
2023-02-19T10:20:53.000Z,20.47
2023-02-19T10:23:20.274Z,18.47
2023-02-19T10:25:54.185Z,23.83
2023-02-19T10:28:24.487Z,24.07
2023-02-19T10:30:54.482Z,18.23
2023-02-19T10:33:21.519Z,20.40
2023-02-19T10:35:58.556Z,19.70
2023-02-19T10:38:31.231Z,14.10
2023-02-19T10:41:05.545Z,12.37
2023-02-19T10:43:37.025Z,16.33
2023-02-19T10:46:08.584Z,14.97
2023-02-19T10:48:39.816Z,26.60
2023-02-19T10:51:09.385Z,16.87
2023-02-19T10:53:47.826Z,13.87
2023-02-19T10:56:29.735Z,16.03
2023-02-19T10:59:15.877Z,16.07
2023-02-19T11:02:03.955Z,13.47
2023-02-19T11:04:35.005Z,19.33
2023-02-19T11:07:15.589Z,13.53
2023-02-19T11:09:45.562Z,17.37
2023-02-19T11:12:14.618Z,13.67
2023-02-19T11:14:44.928Z,17.03
2023-02-19T11:17:22.855Z,12.90
2023-02-19T11:19:53.465Z,14.40
2023-02-19T11:22:35.495Z,13.63
2023-02-19T11:25:14.544Z,12.17
2023-02-19T11:28:20.617Z,14.87
2023-02-19T11:30:47.808Z,14.87
2023-02-19T11:33:14.144Z,19.30
2023-02-19T11:35:40.682Z,13.33
2023-02-19T11:38:16.454Z,11.90
2023-02-19T11:41:14.072Z,11.33
2023-02-19T11:44:07.770Z,10.67
2023-02-19T11:46:47.723Z,9.83
2023-02-19T11:49:45.221Z,10.10
2023-02-19T11:52:11.719Z,10.90
2023-02-19T11:54:40.978Z,11.10
2023-02-19T11:57:25.597Z,11.03
2023-02-19T12:00:13.912Z,11.60
2023-02-19T12:03:04.325Z,12.43
2023-02-19T12:05:45.142Z,12.10
2023-02-19T12:08:23.229Z,10.83
2023-02-19T12:11:11.358Z,11.70
2023-02-19T12:13:52.981Z,9.40
2023-02-19T12:16:44.131Z,11.70
2023-02-19T12:19:33.305Z,11.97
2023-02-19T12:22:23.324Z,11.10
2023-02-19T12:25:16.071Z,15.23
2023-02-19T12:28:20.554Z,11.63
2023-02-19T12:31:15.058Z,12.63
2023-02-19T12:34:00.740Z,13.80
2023-02-19T12:36:50.983Z,14.23
2023-02-19T12:39:34.212Z,17.27
2023-02-19T12:42:22.585Z,12.70
2023-02-19T12:44:56.051Z,11.57
2023-02-19T12:47:28.357Z,13.17
2023-02-19T12:50:06.425Z,13.00
2023-02-19T12:52:40.259Z,15.07
2023-02-19T12:55:24.628Z,14.00
2023-02-19T12:57:52.908Z,15.47
2023-02-19T13:00:31.538Z,11.80
2023-02-19T13:03:20.957Z,17.40
2023-02-19T13:06:15.653Z,11.57
2023-02-19T13:09:08.560Z,13.90
2023-02-19T13:11:47.574Z,15.03
2023-02-19T13:14:24.211Z,16.47
2023-02-19T13:16:55.935Z,14.87
2023-02-19T13:19:22.419Z,15.03
2023-02-19T13:22:16.621Z,15.90
2023-02-19T13:24:45.606Z,16.70
2023-02-19T13:27:17.934Z,17.93
2023-02-19T13:30:08.843Z,18.87
2023-02-19T13:32:55.387Z,16.60
2023-02-19T13:35:52.712Z,14.40
2023-02-19T13:38:19.745Z,14.97
2023-02-19T13:41:04.529Z,13.87
2023-02-19T13:43:35.652Z,14.60
2023-02-19T13:46:06.395Z,17.60
2023-02-19T13:48:38.414Z,16.50
2023-02-19T13:51:18.673Z,19.33
2023-02-19T13:53:45.079Z,15.80
2023-02-19T13:56:30.040Z,14.33
2023-02-19T13:59:15.412Z,20.93
2023-02-19T14:01:54.184Z,16.50
2023-02-19T14:04:55.452Z,14.87
2023-02-19T14:07:35.394Z,21.80
2023-02-19T14:10:02.828Z,15.57
2023-02-19T14:12:34.351Z,21.10
2023-02-19T14:15:41.812Z,15.53
2023-02-19T14:18:43.988Z,19.50
2023-02-19T14:21:37.312Z,19.07
2023-02-19T14:24:05.224Z,19.50
2023-02-19T14:26:34.005Z,19.43
2023-02-19T14:29:17.953Z,19.90
2023-02-19T14:31:46.019Z,16.87
2023-02-19T14:34:22.797Z,17.37
2023-02-19T14:37:01.085Z,18.63
2023-02-19T14:39:31.494Z,17.33
2023-02-19T14:42:04.695Z,15.57
2023-02-19T14:45:00.136Z,17.90
2023-02-19T14:47:32.216Z,18.33
2023-02-19T14:50:04.184Z,20.27
2023-02-19T14:52:40.893Z,17.57
2023-02-19T14:55:14.805Z,13.93
2023-02-19T14:57:45.508Z,17.27
2023-02-19T15:00:34.985Z,16.10
2023-02-19T15:03:02.643Z,17.40
2023-02-19T15:05:33.773Z,16.93
2023-02-19T15:08:08.910Z,18.23
2023-02-19T15:10:36.513Z,12.93
2023-02-19T15:13:11.766Z,13.87
2023-02-19T15:15:43.348Z,17.17
2023-02-19T15:18:19.613Z,16.40
2023-02-19T15:20:46.407Z,12.90
2023-02-19T15:23:23.607Z,15.70
2023-02-19T15:25:50.901Z,14.43
2023-02-19T15:28:26.409Z,19.43
2023-02-19T15:30:58.988Z,16.80
2023-02-19T15:33:27.435Z,16.60
2023-02-19T15:36:02.625Z,13.97
2023-02-19T15:38:29.562Z,17.27
2023-02-19T15:40:57.768Z,15.97
2023-02-19T15:43:50.729Z,15.37
2023-02-19T15:46:24.274Z,16.23
2023-02-19T15:49:03.004Z,13.10
2023-02-19T15:51:55.099Z,10.90
2023-02-19T15:54:30.628Z,18.93
2023-02-19T15:57:03.972Z,13.53
2023-02-19T15:59:46.381Z,14.00
2023-02-19T16:02:14.336Z,13.50
2023-02-19T16:04:44.721Z,16.33
2023-02-19T16:07:34.112Z,18.83
2023-02-19T16:10:22.522Z,16.70
2023-02-19T16:12:57.032Z,16.70
2023-02-19T16:15:23.556Z,21.90
2023-02-19T16:17:50.045Z,18.73
2023-02-19T16:20:24.795Z,20.03
2023-02-19T16:22:52.293Z,21.03
2023-02-19T16:25:37.487Z,15.17
2023-02-19T16:28:24.769Z,27.20
2023-02-19T16:30:59.552Z,15.77
2023-02-19T16:33:48.648Z,22.17
2023-02-19T16:36:37.835Z,20.53
2023-02-19T16:39:15.526Z,13.77
2023-02-19T16:41:45.055Z,16.77
2023-02-19T16:44:20.798Z,16.13
2023-02-19T16:46:49.210Z,14.70
2023-02-19T16:49:16.119Z,14.20
2023-02-19T16:51:45.163Z,16.03
2023-02-19T16:54:12.623Z,10.40
2023-02-19T16:56:39.434Z,10.70
2023-02-19T16:59:09.471Z,7.87
2023-02-19T17:01:37.082Z,7.70
2023-02-19T17:04:09.847Z,10.73
2023-02-19T17:06:39.867Z,7.53
2023-02-19T17:09:08.326Z,9.57
2023-02-19T17:11:35.610Z,9.37
2023-02-19T17:14:02.465Z,7.30
2023-02-19T17:16:32.071Z,7.90
2023-02-19T17:18:58.841Z,9.03
2023-02-19T17:21:27.746Z,11.07
2023-02-19T17:23:55.725Z,8.77
2023-02-19T17:26:25.097Z,8.63
2023-02-19T17:28:51.710Z,10.30
2023-02-19T17:31:18.439Z,9.70
2023-02-19T17:33:45.529Z,13.63
2023-02-19T17:36:19.078Z,10.23
2023-02-19T17:38:45.711Z,16.10
2023-02-19T17:41:12.349Z,13.43
2023-02-19T17:43:39.161Z,10.23
2023-02-19T17:46:05.689Z,8.90
2023-02-19T17:48:32.160Z,11.90
2023-02-19T17:50:58.611Z,10.20
2023-02-19T17:53:25.060Z,11.70
2023-02-19T17:55:51.533Z,11.37
2023-02-19T17:58:18.026Z,10.53
2023-02-19T18:00:44.462Z,10.00
2023-02-19T18:03:11.136Z,10.90
2023-02-19T18:05:37.565Z,13.83
2023-02-19T18:08:03.995Z,10.60
2023-02-19T18:10:30.497Z,11.30
2023-02-19T18:12:57.069Z,11.03
2023-02-19T18:15:26.770Z,10.60
2023-02-19T18:17:54.366Z,11.20
2023-02-19T18:20:24.168Z,12.83
2023-02-19T18:22:51.342Z,9.90
2023-02-19T18:25:19.021Z,9.80
2023-02-19T18:27:46.221Z,9.10
2023-02-19T18:30:16.708Z,9.93
2023-02-19T18:32:43.471Z,10.40
2023-02-19T18:35:09.950Z,9.97
2023-02-19T18:37:36.380Z,8.77
2023-02-19T18:40:04.692Z,11.17
2023-02-19T18:42:31.422Z,7.87
2023-02-19T18:44:58.022Z,8.80
2023-02-19T18:47:27.881Z,7.50
2023-02-19T18:49:57.139Z,8.10
2023-02-19T18:52:25.121Z,8.17
2023-02-19T18:54:53.478Z,7.70
2023-02-19T18:57:22.196Z,8.07
2023-02-19T18:59:49.233Z,8.50
2023-02-19T19:02:17.173Z,8.00
2023-02-19T19:04:43.720Z,7.10
2023-02-19T19:07:10.770Z,6.97
2023-02-19T19:09:37.398Z,10.03
2023-02-19T19:12:04.356Z,8.57
2023-02-19T19:14:30.817Z,8.60
2023-02-19T19:16:57.257Z,7.40
2023-02-19T19:19:24.046Z,7.40
2023-02-19T19:21:55.221Z,6.60
2023-02-19T19:24:24.169Z,9.30
2023-02-19T19:26:51.484Z,8.83
2023-02-19T19:29:20.384Z,7.50
2023-02-19T19:31:49.825Z,7.30
2023-02-19T19:34:17.288Z,10.80
2023-02-19T19:36:44.750Z,9.30
2023-02-19T19:39:11.551Z,8.00
2023-02-19T19:41:37.976Z,7.63
2023-02-19T19:44:06.042Z,7.87
2023-02-19T19:46:33.014Z,8.37
2023-02-19T19:48:59.799Z,8.23
2023-02-19T19:51:34.184Z,7.53
2023-02-19T19:54:03.120Z,9.13
2023-02-19T19:56:30.202Z,7.73
2023-02-19T19:58:56.643Z,10.50
2023-02-19T20:01:23.668Z,7.37
2023-02-19T20:03:53.607Z,8.27
2023-02-19T20:06:27.641Z,9.43
2023-02-19T20:08:54.552Z,8.50
2023-02-19T20:11:21.074Z,7.77
2023-02-19T20:13:47.568Z,9.00
2023-02-19T20:16:14.615Z,7.30
2023-02-19T20:18:41.239Z,7.77
2023-02-19T20:21:09.444Z,8.10
2023-02-19T20:23:38.236Z,8.27
2023-02-19T20:26:05.450Z,7.80
2023-02-19T20:28:32.864Z,8.20
2023-02-19T20:30:59.437Z,8.70
2023-02-19T20:33:26.015Z,8.57
2023-02-19T20:35:52.640Z,7.33
2023-02-19T20:38:19.136Z,9.63
2023-02-19T20:40:45.725Z,8.73
2023-02-19T20:43:12.200Z,7.57
2023-02-19T20:45:39.195Z,10.03
2023-02-19T20:48:05.680Z,8.67
2023-02-19T20:50:32.164Z,7.90
2023-02-19T20:52:58.585Z,10.20
2023-02-19T20:55:25.870Z,8.00
2023-02-19T20:57:52.358Z,8.77
2023-02-19T21:00:19.392Z,8.10
2023-02-19T21:02:46.011Z,8.67
2023-02-19T21:05:13.440Z,8.63
2023-02-19T21:07:39.926Z,8.10
2023-02-19T21:10:06.949Z,10.03
2023-02-19T21:12:33.851Z,8.27
2023-02-19T21:15:00.388Z,11.40
2023-02-19T21:17:26.952Z,10.20
2023-02-19T21:19:53.486Z,8.50
2023-02-19T21:22:20.047Z,8.97
2023-02-19T21:24:51.909Z,9.37
2023-02-19T21:27:19.431Z,9.57
2023-02-19T21:29:46.601Z,7.90
2023-02-19T21:32:13.220Z,8.77
2023-02-19T21:34:40.312Z,9.60
2023-02-19T21:37:06.767Z,9.60
2023-02-19T21:39:34.633Z,9.07
2023-02-19T21:42:01.664Z,12.10
2023-02-19T21:44:28.171Z,10.10
2023-02-19T21:46:54.621Z,8.93
2023-02-19T21:49:21.096Z,10.40
2023-02-19T21:51:50.540Z,9.40
2023-02-19T21:54:21.582Z,7.90
2023-02-19T21:56:48.680Z,11.90
2023-02-19T21:59:15.193Z,8.50
2023-02-19T22:01:43.142Z,8.90
2023-02-19T22:04:13.980Z,9.20
2023-02-19T22:06:40.963Z,8.17
2023-02-19T22:09:08.530Z,9.63
2023-02-19T22:11:35.090Z,12.03
2023-02-19T22:14:01.721Z,14.37
2023-02-19T22:16:28.786Z,14.90
2023-02-19T22:18:57.480Z,10.50
2023-02-19T22:21:26.870Z,8.90
2023-02-19T22:23:54.576Z,10.93
2023-02-19T22:26:30.388Z,8.10
2023-02-19T22:28:59.205Z,9.07
2023-02-19T22:31:27.754Z,11.37
2023-02-19T22:33:56.429Z,9.33
2023-02-19T22:36:25.986Z,8.30
2023-02-19T22:38:52.864Z,14.80
2023-02-19T22:41:20.636Z,10.20
2023-02-19T22:43:47.525Z,8.30
2023-02-19T22:46:16.948Z,8.53
2023-02-19T22:48:43.467Z,8.00
2023-02-19T22:51:13.135Z,9.30
2023-02-19T22:53:59.310Z,9.20
2023-02-19T22:56:27.752Z,7.40
2023-02-19T22:58:57.134Z,10.73
2023-02-19T23:01:24.568Z,10.13
2023-02-19T23:03:56.203Z,9.03
2023-02-19T23:06:31.491Z,9.17
2023-02-19T23:09:02.648Z,9.93
2023-02-19T23:11:31.883Z,9.07
2023-02-19T23:13:59.146Z,7.93
2023-02-19T23:16:25.763Z,9.33
2023-02-19T23:18:52.443Z,8.70
2023-02-19T23:21:19.958Z,8.93
2023-02-19T23:23:47.112Z,10.03
2023-02-19T23:26:15.748Z,9.57
2023-02-19T23:28:43.873Z,10.63
2023-02-19T23:31:11.356Z,12.20
2023-02-19T23:33:38.355Z,9.77
2023-02-19T23:36:05.794Z,10.83
2023-02-19T23:38:32.190Z,11.90
2023-02-19T23:40:59.156Z,10.33
2023-02-19T23:43:25.590Z,11.13
2023-02-19T23:45:52.139Z,10.30
2023-02-19T23:48:18.658Z,10.97
2023-02-19T23:50:45.286Z,9.90
2023-02-19T23:53:11.963Z,10.03
2023-02-19T23:55:38.444Z,10.23
2023-02-19T23:58:04.925Z,10.60
